sensor_id;sensor_type;location;lat;lon;timestamp;temperature;humidity
78704;SHT31;68034;51.966;5.676;2023-06-22T00:01:05;22.4;61.2
78704;SHT31;68034;51.966;5.676;2023-06-22T00:03:34;22.4;61.2
78704;SHT31;68034;51.966;5.676;2023-06-22T00:06:05;22.4;61.1
78704;SHT31;68034;51.966;5.676;2023-06-22T00:08:35;22.4;61.1
78704;SHT31;68034;51.966;5.676;2023-06-22T00:11:04;22.4;60.3
78704;SHT31;68034;51.966;5.676;2023-06-22T00:13:33;22.4;60.4
78704;SHT31;68034;51.966;5.676;2023-06-22T00:16:02;22.4;60.9
78704;SHT31;68034;51.966;5.676;2023-06-22T00:18:31;22.4;61.3
78704;SHT31;68034;51.966;5.676;2023-06-22T00:21:00;22.4;61.2
78704;SHT31;68034;51.966;5.676;2023-06-22T00:23:29;22.5;60.5
78704;SHT31;68034;51.966;5.676;2023-06-22T00:26:00;22.5;60.6
78704;SHT31;68034;51.966;5.676;2023-06-22T00:28:29;22.5;60.1
78704;SHT31;68034;51.966;5.676;2023-06-22T00:30:58;22.4;60.4
78704;SHT31;68034;51.966;5.676;2023-06-22T00:33:27;22.4;60.5
78704;SHT31;68034;51.966;5.676;2023-06-22T00:35:55;22.4;60.6
78704;SHT31;68034;51.966;5.676;2023-06-22T00:38:24;22.3;60.3
78704;SHT31;68034;51.966;5.676;2023-06-22T00:40:53;22.3;60.5
78704;SHT31;68034;51.966;5.676;2023-06-22T00:43:21;22.3;61.0
78704;SHT31;68034;51.966;5.676;2023-06-22T00:45:50;22.2;61.1
78704;SHT31;68034;51.966;5.676;2023-06-22T00:48:19;22.2;60.5
78704;SHT31;68034;51.966;5.676;2023-06-22T00:50:48;22.2;60.9
78704;SHT31;68034;51.966;5.676;2023-06-22T00:53:25;22.2;60.4
78704;SHT31;68034;51.966;5.676;2023-06-22T00:55:56;22.3;60.5
78704;SHT31;68034;51.966;5.676;2023-06-22T00:58:27;22.4;60.7
78704;SHT31;68034;51.966;5.676;2023-06-22T01:01:06;22.5;60.8
78704;SHT31;68034;51.966;5.676;2023-06-22T01:03:39;22.6;60.2
78704;SHT31;68034;51.966;5.676;2023-06-22T01:06:17;22.7;59.6
78704;SHT31;68034;51.966;5.676;2023-06-22T01:08:51;22.8;58.9
78704;SHT31;68034;51.966;5.676;2023-06-22T01:11:26;22.8;58.6
78704;SHT31;68034;51.966;5.676;2023-06-22T01:14:03;22.8;59.2
78704;SHT31;68034;51.966;5.676;2023-06-22T01:16:40;22.7;59.1
78704;SHT31;68034;51.966;5.676;2023-06-22T01:19:30;22.7;58.9
78704;SHT31;68034;51.966;5.676;2023-06-22T01:21:57;22.7;58.9
78704;SHT31;68034;51.966;5.676;2023-06-22T01:24:33;22.7;58.9
78704;SHT31;68034;51.966;5.676;2023-06-22T01:27:18;22.7;58.4
78704;SHT31;68034;51.966;5.676;2023-06-22T01:29:50;22.6;58.6
78704;SHT31;68034;51.966;5.676;2023-06-22T01:32:20;22.5;58.8
78704;SHT31;68034;51.966;5.676;2023-06-22T01:34:50;22.4;58.4
78704;SHT31;68034;51.966;5.676;2023-06-22T01:37:22;22.3;59.3
78704;SHT31;68034;51.966;5.676;2023-06-22T01:39:52;22.3;59.5
78704;SHT31;68034;51.966;5.676;2023-06-22T01:42:24;22.2;59.8
78704;SHT31;68034;51.966;5.676;2023-06-22T01:44:54;22.2;60.4
78704;SHT31;68034;51.966;5.676;2023-06-22T01:47:24;22.1;59.9
78704;SHT31;68034;51.966;5.676;2023-06-22T01:49:54;22.0;60.0
78704;SHT31;68034;51.966;5.676;2023-06-22T01:52:25;21.9;61.2
78704;SHT31;68034;51.966;5.676;2023-06-22T01:54:56;21.8;60.5
78704;SHT31;68034;51.966;5.676;2023-06-22T01:57:26;21.8;61.3
78704;SHT31;68034;51.966;5.676;2023-06-22T02:00:00;21.7;61.6
78704;SHT31;68034;51.966;5.676;2023-06-22T02:02:35;21.6;61.5
78704;SHT31;68034;51.966;5.676;2023-06-22T02:05:08;21.5;62.0
78704;SHT31;68034;51.966;5.676;2023-06-22T02:07:44;21.5;62.2
78704;SHT31;68034;51.966;5.676;2023-06-22T02:10:14;21.4;62.5
78704;SHT31;68034;51.966;5.676;2023-06-22T02:12:45;21.4;62.6
78704;SHT31;68034;51.966;5.676;2023-06-22T02:15:15;21.3;62.6
78704;SHT31;68034;51.966;5.676;2023-06-22T02:17:44;21.2;62.9
78704;SHT31;68034;51.966;5.676;2023-06-22T02:20:15;21.2;63.1
78704;SHT31;68034;51.966;5.676;2023-06-22T02:22:46;21.2;63.1
78704;SHT31;68034;51.966;5.676;2023-06-22T02:25:14;21.2;63.3
78704;SHT31;68034;51.966;5.676;2023-06-22T02:27:45;21.2;63.4
78704;SHT31;68034;51.966;5.676;2023-06-22T02:30:14;21.2;63.3
78704;SHT31;68034;51.966;5.676;2023-06-22T02:32:43;21.2;63.2
78704;SHT31;68034;51.966;5.676;2023-06-22T02:35:12;21.1;63.3
78704;SHT31;68034;51.966;5.676;2023-06-22T02:37:41;21.1;63.3
78704;SHT31;68034;51.966;5.676;2023-06-22T02:40:10;21.1;63.8
78704;SHT31;68034;51.966;5.676;2023-06-22T02:42:39;21.0;63.6
78704;SHT31;68034;51.966;5.676;2023-06-22T02:45:09;21.0;63.9
78704;SHT31;68034;51.966;5.676;2023-06-22T02:47:38;21.0;64.0
78704;SHT31;68034;51.966;5.676;2023-06-22T02:50:07;21.0;64.3
78704;SHT31;68034;51.966;5.676;2023-06-22T02:52:36;20.9;64.2
78704;SHT31;68034;51.966;5.676;2023-06-22T02:55:06;20.9;64.6
78704;SHT31;68034;51.966;5.676;2023-06-22T02:57:35;20.9;64.8
78704;SHT31;68034;51.966;5.676;2023-06-22T03:00:10;20.8;64.8
78704;SHT31;68034;51.966;5.676;2023-06-22T03:02:45;20.8;64.8
78704;SHT31;68034;51.966;5.676;2023-06-22T03:05:15;20.8;64.9
78704;SHT31;68034;51.966;5.676;2023-06-22T03:07:45;20.8;65.0
78704;SHT31;68034;51.966;5.676;2023-06-22T03:10:14;20.7;64.8
78704;SHT31;68034;51.966;5.676;2023-06-22T03:12:43;20.7;65.3
78704;SHT31;68034;51.966;5.676;2023-06-22T03:15:13;20.7;65.3
78704;SHT31;68034;51.966;5.676;2023-06-22T03:17:41;20.6;65.0
78704;SHT31;68034;51.966;5.676;2023-06-22T03:20:11;20.6;65.4
78704;SHT31;68034;51.966;5.676;2023-06-22T03:22:40;20.6;65.8
78704;SHT31;68034;51.966;5.676;2023-06-22T03:25:10;20.6;65.8
78704;SHT31;68034;51.966;5.676;2023-06-22T03:27:40;20.6;66.0
78704;SHT31;68034;51.966;5.676;2023-06-22T03:30:13;20.6;66.2
78704;SHT31;68034;51.966;5.676;2023-06-22T03:32:41;20.6;66.4
78704;SHT31;68034;51.966;5.676;2023-06-22T03:35:13;20.5;66.4
78704;SHT31;68034;51.966;5.676;2023-06-22T03:37:41;20.5;66.5
78704;SHT31;68034;51.966;5.676;2023-06-22T03:40:13;20.5;66.4
78704;SHT31;68034;51.966;5.676;2023-06-22T03:42:42;20.5;66.3
78704;SHT31;68034;51.966;5.676;2023-06-22T03:45:11;20.5;66.1
78704;SHT31;68034;51.966;5.676;2023-06-22T03:47:40;20.5;66.2
78704;SHT31;68034;51.966;5.676;2023-06-22T03:50:09;20.5;66.4
78704;SHT31;68034;51.966;5.676;2023-06-22T03:52:38;20.4;66.6
78704;SHT31;68034;51.966;5.676;2023-06-22T03:55:07;20.4;66.9
78704;SHT31;68034;51.966;5.676;2023-06-22T03:57:36;20.4;67.0
78704;SHT31;68034;51.966;5.676;2023-06-22T04:00:05;20.4;67.1
78704;SHT31;68034;51.966;5.676;2023-06-22T04:02:36;20.4;67.5
78704;SHT31;68034;51.966;5.676;2023-06-22T04:05:05;20.4;67.7
78704;SHT31;68034;51.966;5.676;2023-06-22T04:07:34;20.3;67.3
78704;SHT31;68034;51.966;5.676;2023-06-22T04:10:04;20.3;67.7
78704;SHT31;68034;51.966;5.676;2023-06-22T04:12:33;20.3;67.9
78704;SHT31;68034;51.966;5.676;2023-06-22T04:15:02;20.3;67.6
78704;SHT31;68034;51.966;5.676;2023-06-22T04:17:31;20.3;67.9
78704;SHT31;68034;51.966;5.676;2023-06-22T04:20:00;20.3;68.1
78704;SHT31;68034;51.966;5.676;2023-06-22T04:22:31;20.3;68.3
78704;SHT31;68034;51.966;5.676;2023-06-22T04:25:00;20.4;68.6
78704;SHT31;68034;51.966;5.676;2023-06-22T04:27:29;20.5;68.2
78704;SHT31;68034;51.966;5.676;2023-06-22T04:29:57;20.6;68.2
78704;SHT31;68034;51.966;5.676;2023-06-22T04:32:27;20.6;68.1
78704;SHT31;68034;51.966;5.676;2023-06-22T04:34:55;20.7;67.8
78704;SHT31;68034;51.966;5.676;2023-06-22T04:37:25;20.8;67.7
78704;SHT31;68034;51.966;5.676;2023-06-22T04:39:54;20.8;67.3
78704;SHT31;68034;51.966;5.676;2023-06-22T04:42:25;20.8;67.6
78704;SHT31;68034;51.966;5.676;2023-06-22T04:44:54;20.8;67.5
78704;SHT31;68034;51.966;5.676;2023-06-22T04:47:23;20.8;67.7
78704;SHT31;68034;51.966;5.676;2023-06-22T04:49:51;20.8;67.7
78704;SHT31;68034;51.966;5.676;2023-06-22T04:52:20;20.8;68.1
78704;SHT31;68034;51.966;5.676;2023-06-22T04:54:49;20.8;68.2
78704;SHT31;68034;51.966;5.676;2023-06-22T04:57:22;20.8;68.2
78704;SHT31;68034;51.966;5.676;2023-06-22T04:59:56;20.8;68.4
78704;SHT31;68034;51.966;5.676;2023-06-22T05:02:30;20.8;68.5
78704;SHT31;68034;51.966;5.676;2023-06-22T05:04:59;20.8;69.3
78704;SHT31;68034;51.966;5.676;2023-06-22T05:07:33;20.7;69.7
78704;SHT31;68034;51.966;5.676;2023-06-22T05:10:02;20.7;69.8
78704;SHT31;68034;51.966;5.676;2023-06-22T05:12:31;20.7;69.9
78704;SHT31;68034;51.966;5.676;2023-06-22T05:15:02;20.7;70.8
78704;SHT31;68034;51.966;5.676;2023-06-22T05:17:31;20.7;70.1
78704;SHT31;68034;51.966;5.676;2023-06-22T05:20:00;20.8;70.2
78704;SHT31;68034;51.966;5.676;2023-06-22T05:22:32;20.8;70.2
78704;SHT31;68034;51.966;5.676;2023-06-22T05:25:01;20.8;70.1
78704;SHT31;68034;51.966;5.676;2023-06-22T05:27:31;20.8;69.9
78704;SHT31;68034;51.966;5.676;2023-06-22T05:30:00;20.8;70.3
78704;SHT31;68034;51.966;5.676;2023-06-22T05:32:29;20.8;70.2
78704;SHT31;68034;51.966;5.676;2023-06-22T05:34:57;20.8;70.0
78704;SHT31;68034;51.966;5.676;2023-06-22T05:37:26;20.8;69.3
78704;SHT31;68034;51.966;5.676;2023-06-22T05:39:55;20.8;70.1
78704;SHT31;68034;51.966;5.676;2023-06-22T05:42:24;20.8;70.1
78704;SHT31;68034;51.966;5.676;2023-06-22T05:44:54;20.9;69.8
78704;SHT31;68034;51.966;5.676;2023-06-22T05:47:23;20.9;70.8
78704;SHT31;68034;51.966;5.676;2023-06-22T05:49:51;20.9;71.0
78704;SHT31;68034;51.966;5.676;2023-06-22T05:52:20;20.9;70.6
78704;SHT31;68034;51.966;5.676;2023-06-22T05:54:49;21.0;69.9
78704;SHT31;68034;51.966;5.676;2023-06-22T05:57:17;21.0;68.9
78704;SHT31;68034;51.966;5.676;2023-06-22T05:59:48;21.0;69.2
78704;SHT31;68034;51.966;5.676;2023-06-22T06:02:17;21.0;69.4
78704;SHT31;68034;51.966;5.676;2023-06-22T06:04:45;21.1;69.6
78704;SHT31;68034;51.966;5.676;2023-06-22T06:07:14;21.1;69.7
78704;SHT31;68034;51.966;5.676;2023-06-22T06:09:45;21.1;69.5
78704;SHT31;68034;51.966;5.676;2023-06-22T06:12:14;21.2;68.0
78704;SHT31;68034;51.966;5.676;2023-06-22T06:14:43;21.2;68.7
78704;SHT31;68034;51.966;5.676;2023-06-22T06:17:12;21.3;68.2
78704;SHT31;68034;51.966;5.676;2023-06-22T06:19:40;21.3;68.8
78704;SHT31;68034;51.966;5.676;2023-06-22T06:22:09;21.4;69.5
78704;SHT31;68034;51.966;5.676;2023-06-22T06:24:38;21.4;68.7
78704;SHT31;68034;51.966;5.676;2023-06-22T06:27:08;21.6;69.7
78704;SHT31;68034;51.966;5.676;2023-06-22T06:29:39;21.7;68.3
78704;SHT31;68034;51.966;5.676;2023-06-22T06:32:10;21.8;67.6
78704;SHT31;68034;51.966;5.676;2023-06-22T06:34:39;21.9;67.7
78704;SHT31;68034;51.966;5.676;2023-06-22T06:37:07;22.0;68.5
78704;SHT31;68034;51.966;5.676;2023-06-22T06:39:36;22.1;67.8
78704;SHT31;68034;51.966;5.676;2023-06-22T06:42:05;22.1;68.1
78704;SHT31;68034;51.966;5.676;2023-06-22T06:44:34;22.2;67.1
78704;SHT31;68034;51.966;5.676;2023-06-22T06:47:04;22.3;68.0
78704;SHT31;68034;51.966;5.676;2023-06-22T06:49:33;22.4;68.2
78704;SHT31;68034;51.966;5.676;2023-06-22T06:52:02;22.5;67.9
78704;SHT31;68034;51.966;5.676;2023-06-22T06:54:31;22.5;66.1
78704;SHT31;68034;51.966;5.676;2023-06-22T06:57:00;22.6;66.4
78704;SHT31;68034;51.966;5.676;2023-06-22T06:59:29;22.7;66.1
78704;SHT31;68034;51.966;5.676;2023-06-22T07:01:58;22.8;65.6
78704;SHT31;68034;51.966;5.676;2023-06-22T07:04:27;22.9;65.4
78704;SHT31;68034;51.966;5.676;2023-06-22T07:06:55;22.9;65.6
78704;SHT31;68034;51.966;5.676;2023-06-22T07:09:24;23.0;64.9
78704;SHT31;68034;51.966;5.676;2023-06-22T07:11:53;23.1;63.3
78704;SHT31;68034;51.966;5.676;2023-06-22T07:14:21;23.1;63.6
78704;SHT31;68034;51.966;5.676;2023-06-22T07:16:50;23.2;63.8
78704;SHT31;68034;51.966;5.676;2023-06-22T07:19:26;23.3;63.6
78704;SHT31;68034;51.966;5.676;2023-06-22T07:21:55;23.3;63.7
78704;SHT31;68034;51.966;5.676;2023-06-22T07:24:24;23.4;62.3
78704;SHT31;68034;51.966;5.676;2023-06-22T07:26:53;23.4;63.1
78704;SHT31;68034;51.966;5.676;2023-06-22T07:29:24;23.5;63.1
78704;SHT31;68034;51.966;5.676;2023-06-22T07:31:53;23.6;63.3
78704;SHT31;68034;51.966;5.676;2023-06-22T07:34:22;23.7;63.0
78704;SHT31;68034;51.966;5.676;2023-06-22T07:36:51;23.8;60.9
78704;SHT31;68034;51.966;5.676;2023-06-22T07:39:20;23.9;61.9
78704;SHT31;68034;51.966;5.676;2023-06-22T07:41:52;24.0;61.0
78704;SHT31;68034;51.966;5.676;2023-06-22T07:44:21;24.1;59.6
78704;SHT31;68034;51.966;5.676;2023-06-22T07:46:52;24.2;60.2
78704;SHT31;68034;51.966;5.676;2023-06-22T07:49:20;24.3;59.7
78704;SHT31;68034;51.966;5.676;2023-06-22T07:51:49;24.3;59.0
78704;SHT31;68034;51.966;5.676;2023-06-22T07:54:18;24.4;58.1
78704;SHT31;68034;51.966;5.676;2023-06-22T07:56:48;24.4;59.2
78704;SHT31;68034;51.966;5.676;2023-06-22T07:59:16;24.4;57.6
78704;SHT31;68034;51.966;5.676;2023-06-22T08:01:45;24.4;57.6
78704;SHT31;68034;51.966;5.676;2023-06-22T08:04:15;24.4;57.6
78704;SHT31;68034;51.966;5.676;2023-06-22T08:06:44;24.5;57.2
78704;SHT31;68034;51.966;5.676;2023-06-22T08:09:12;24.5;57.8
78704;SHT31;68034;51.966;5.676;2023-06-22T08:11:41;24.5;57.5
78704;SHT31;68034;51.966;5.676;2023-06-22T08:14:10;24.5;57.9
78704;SHT31;68034;51.966;5.676;2023-06-22T08:16:39;24.6;56.7
78704;SHT31;68034;51.966;5.676;2023-06-22T08:19:07;24.6;56.1
78704;SHT31;68034;51.966;5.676;2023-06-22T08:21:36;24.7;57.1
78704;SHT31;68034;51.966;5.676;2023-06-22T08:24:06;24.7;56.4
78704;SHT31;68034;51.966;5.676;2023-06-22T08:26:35;24.8;56.6
78704;SHT31;68034;51.966;5.676;2023-06-22T08:29:04;24.9;56.2
78704;SHT31;68034;51.966;5.676;2023-06-22T08:31:32;25.0;56.4
78704;SHT31;68034;51.966;5.676;2023-06-22T08:34:01;25.1;55.1
78704;SHT31;68034;51.966;5.676;2023-06-22T08:36:30;25.2;55.7
78704;SHT31;68034;51.966;5.676;2023-06-22T08:39:04;25.2;56.0
78704;SHT31;68034;51.966;5.676;2023-06-22T08:41:33;25.3;55.0
78704;SHT31;68034;51.966;5.676;2023-06-22T08:44:04;25.4;56.3
78704;SHT31;68034;51.966;5.676;2023-06-22T08:46:32;25.6;55.9
78704;SHT31;68034;51.966;5.676;2023-06-22T08:49:01;25.7;53.6
78704;SHT31;68034;51.966;5.676;2023-06-22T08:51:30;25.8;52.9
78704;SHT31;68034;51.966;5.676;2023-06-22T08:54:01;25.9;52.9
78704;SHT31;68034;51.966;5.676;2023-06-22T08:56:29;25.9;52.2
78704;SHT31;68034;51.966;5.676;2023-06-22T08:58:58;25.9;53.1
78704;SHT31;68034;51.966;5.676;2023-06-22T09:01:27;26.0;53.3
78704;SHT31;68034;51.966;5.676;2023-06-22T09:03:56;26.0;52.4
78704;SHT31;68034;51.966;5.676;2023-06-22T09:06:26;26.0;51.9
78704;SHT31;68034;51.966;5.676;2023-06-22T09:08:57;26.1;51.9
78704;SHT31;68034;51.966;5.676;2023-06-22T09:11:29;26.1;53.1
78704;SHT31;68034;51.966;5.676;2023-06-22T09:13:58;26.1;51.3
78704;SHT31;68034;51.966;5.676;2023-06-22T09:16:27;26.2;51.5
78704;SHT31;68034;51.966;5.676;2023-06-22T09:18:56;26.2;52.4
78704;SHT31;68034;51.966;5.676;2023-06-22T09:21:24;26.2;53.0
78704;SHT31;68034;51.966;5.676;2023-06-22T09:23:53;26.2;51.2
78704;SHT31;68034;51.966;5.676;2023-06-22T09:26:22;26.2;50.5
78704;SHT31;68034;51.966;5.676;2023-06-22T09:28:52;26.2;52.4
78704;SHT31;68034;51.966;5.676;2023-06-22T09:31:22;26.2;50.3
78704;SHT31;68034;51.966;5.676;2023-06-22T09:33:52;26.2;51.6
78704;SHT31;68034;51.966;5.676;2023-06-22T09:36:22;26.2;51.7
78704;SHT31;68034;51.966;5.676;2023-06-22T09:38:50;26.2;50.0
78704;SHT31;68034;51.966;5.676;2023-06-22T09:41:24;26.2;50.2
78704;SHT31;68034;51.966;5.676;2023-06-22T09:43:53;26.2;52.4
78704;SHT31;68034;51.966;5.676;2023-06-22T09:46:22;26.2;52.5
78704;SHT31;68034;51.966;5.676;2023-06-22T09:48:52;26.1;51.9
78704;SHT31;68034;51.966;5.676;2023-06-22T09:51:21;26.1;49.2
78704;SHT31;68034;51.966;5.676;2023-06-22T09:53:50;26.1;49.5
78704;SHT31;68034;51.966;5.676;2023-06-22T09:56:20;26.1;48.6
78704;SHT31;68034;51.966;5.676;2023-06-22T09:58:49;26.1;50.2
78704;SHT31;68034;51.966;5.676;2023-06-22T10:01:19;26.1;50.5
78704;SHT31;68034;51.966;5.676;2023-06-22T10:03:48;26.1;52.2
78704;SHT31;68034;51.966;5.676;2023-06-22T10:06:17;26.0;52.2
78704;SHT31;68034;51.966;5.676;2023-06-22T10:08:45;26.0;49.8
78704;SHT31;68034;51.966;5.676;2023-06-22T10:11:14;26.0;49.5
78704;SHT31;68034;51.966;5.676;2023-06-22T10:13:43;25.9;52.6
78704;SHT31;68034;51.966;5.676;2023-06-22T10:16:12;25.9;53.4
78704;SHT31;68034;51.966;5.676;2023-06-22T10:18:40;25.9;52.8
78704;SHT31;68034;51.966;5.676;2023-06-22T10:21:09;25.8;52.3
78704;SHT31;68034;51.966;5.676;2023-06-22T10:23:37;25.8;54.4
78704;SHT31;68034;51.966;5.676;2023-06-22T10:26:06;25.8;55.3
78704;SHT31;68034;51.966;5.676;2023-06-22T10:28:35;25.8;55.5
78704;SHT31;68034;51.966;5.676;2023-06-22T10:31:06;25.8;55.8
78704;SHT31;68034;51.966;5.676;2023-06-22T10:33:35;25.9;55.3
78704;SHT31;68034;51.966;5.676;2023-06-22T10:36:04;26.0;54.0
78704;SHT31;68034;51.966;5.676;2023-06-22T10:38:34;26.0;55.5
78704;SHT31;68034;51.966;5.676;2023-06-22T10:41:03;26.1;55.4
78704;SHT31;68034;51.966;5.676;2023-06-22T10:43:32;26.1;54.9
78704;SHT31;68034;51.966;5.676;2023-06-22T10:46:00;26.1;55.0
78704;SHT31;68034;51.966;5.676;2023-06-22T10:48:29;26.1;54.7
78704;SHT31;68034;51.966;5.676;2023-06-22T10:50:58;26.1;55.6
78704;SHT31;68034;51.966;5.676;2023-06-22T10:53:28;26.1;56.0
78704;SHT31;68034;51.966;5.676;2023-06-22T10:55:57;26.1;56.6
78704;SHT31;68034;51.966;5.676;2023-06-22T10:58:26;26.1;55.9
78704;SHT31;68034;51.966;5.676;2023-06-22T11:00:55;26.1;54.7
78704;SHT31;68034;51.966;5.676;2023-06-22T11:03:25;26.1;55.7
78704;SHT31;68034;51.966;5.676;2023-06-22T11:05:54;26.1;56.1
78704;SHT31;68034;51.966;5.676;2023-06-22T11:08:23;26.0;56.5
78704;SHT31;68034;51.966;5.676;2023-06-22T11:10:52;26.0;56.6
78704;SHT31;68034;51.966;5.676;2023-06-22T11:13:20;26.0;56.2
78704;SHT31;68034;51.966;5.676;2023-06-22T11:15:49;26.0;56.3
78704;SHT31;68034;51.966;5.676;2023-06-22T11:18:18;26.0;55.8
78704;SHT31;68034;51.966;5.676;2023-06-22T11:20:48;26.0;55.2
78704;SHT31;68034;51.966;5.676;2023-06-22T11:23:17;26.0;57.2
78704;SHT31;68034;51.966;5.676;2023-06-22T11:25:46;26.0;56.4
78704;SHT31;68034;51.966;5.676;2023-06-22T11:28:14;26.0;56.5
78704;SHT31;68034;51.966;5.676;2023-06-22T11:30:43;26.0;57.1
78704;SHT31;68034;51.966;5.676;2023-06-22T11:33:12;26.0;57.8
78704;SHT31;68034;51.966;5.676;2023-06-22T11:35:41;26.0;58.0
78704;SHT31;68034;51.966;5.676;2023-06-22T11:38:09;26.0;57.1
78704;SHT31;68034;51.966;5.676;2023-06-22T11:40:38;26.0;57.1
78704;SHT31;68034;51.966;5.676;2023-06-22T11:43:07;26.0;56.9
78704;SHT31;68034;51.966;5.676;2023-06-22T11:45:36;26.0;55.9
78704;SHT31;68034;51.966;5.676;2023-06-22T11:48:05;26.0;57.1
78704;SHT31;68034;51.966;5.676;2023-06-22T11:50:34;26.0;57.2
78704;SHT31;68034;51.966;5.676;2023-06-22T11:53:02;26.0;58.2
78704;SHT31;68034;51.966;5.676;2023-06-22T11:55:31;25.9;59.5
78704;SHT31;68034;51.966;5.676;2023-06-22T11:58:00;25.9;59.7
78704;SHT31;68034;51.966;5.676;2023-06-22T12:00:30;25.8;60.9
78704;SHT31;68034;51.966;5.676;2023-06-22T12:02:58;25.7;62.8
78704;SHT31;68034;51.966;5.676;2023-06-22T12:05:27;25.6;63.5
78704;SHT31;68034;51.966;5.676;2023-06-22T12:07:56;25.5;64.3
78704;SHT31;68034;51.966;5.676;2023-06-22T12:10:25;25.3;65.0
78704;SHT31;68034;51.966;5.676;2023-06-22T12:12:55;25.1;65.4
78704;SHT31;68034;51.966;5.676;2023-06-22T12:15:24;24.9;66.3
78704;SHT31;68034;51.966;5.676;2023-06-22T12:17:52;24.8;67.6
78704;SHT31;68034;51.966;5.676;2023-06-22T12:20:21;24.6;67.9
78704;SHT31;68034;51.966;5.676;2023-06-22T12:22:50;24.5;69.2
78704;SHT31;68034;51.966;5.676;2023-06-22T12:25:20;24.4;69.4
78704;SHT31;68034;51.966;5.676;2023-06-22T12:27:49;24.3;70.1
78704;SHT31;68034;51.966;5.676;2023-06-22T12:30:17;24.2;70.1
78704;SHT31;68034;51.966;5.676;2023-06-22T12:32:46;24.1;70.4
78704;SHT31;68034;51.966;5.676;2023-06-22T12:35:16;24.1;70.8
78704;SHT31;68034;51.966;5.676;2023-06-22T12:37:45;24.1;71.1
78704;SHT31;68034;51.966;5.676;2023-06-22T12:40:13;24.1;71.4
78704;SHT31;68034;51.966;5.676;2023-06-22T12:42:44;24.0;71.4
78704;SHT31;68034;51.966;5.676;2023-06-22T12:45:13;24.0;71.8
78704;SHT31;68034;51.966;5.676;2023-06-22T12:47:42;24.0;72.5
78704;SHT31;68034;51.966;5.676;2023-06-22T12:50:13;23.9;72.7
78704;SHT31;68034;51.966;5.676;2023-06-22T12:52:42;23.9;72.4
78704;SHT31;68034;51.966;5.676;2023-06-22T12:55:11;23.8;72.4
78704;SHT31;68034;51.966;5.676;2023-06-22T12:57:39;23.8;72.8
78704;SHT31;68034;51.966;5.676;2023-06-22T13:00:09;23.7;73.8
78704;SHT31;68034;51.966;5.676;2023-06-22T13:02:38;23.7;73.7
78704;SHT31;68034;51.966;5.676;2023-06-22T13:05:07;23.6;74.7
78704;SHT31;68034;51.966;5.676;2023-06-22T13:07:36;23.6;74.5
78704;SHT31;68034;51.966;5.676;2023-06-22T13:10:05;23.6;73.9
78704;SHT31;68034;51.966;5.676;2023-06-22T13:12:34;23.5;74.0
78704;SHT31;68034;51.966;5.676;2023-06-22T13:15:03;23.5;74.3
78704;SHT31;68034;51.966;5.676;2023-06-22T13:17:33;23.5;74.7
78704;SHT31;68034;51.966;5.676;2023-06-22T13:20:03;23.5;73.4
78704;SHT31;68034;51.966;5.676;2023-06-22T13:22:34;23.5;74.1
78704;SHT31;68034;51.966;5.676;2023-06-22T13:25:07;23.5;75.2
78704;SHT31;68034;51.966;5.676;2023-06-22T13:27:38;23.5;75.0
78704;SHT31;68034;51.966;5.676;2023-06-22T13:30:07;23.4;76.3
78704;SHT31;68034;51.966;5.676;2023-06-22T13:32:38;23.4;76.6
78704;SHT31;68034;51.966;5.676;2023-06-22T13:35:08;23.4;76.4
78704;SHT31;68034;51.966;5.676;2023-06-22T13:37:38;23.3;76.1
78704;SHT31;68034;51.966;5.676;2023-06-22T13:40:10;23.3;76.0
78704;SHT31;68034;51.966;5.676;2023-06-22T13:42:38;23.3;76.4
78704;SHT31;68034;51.966;5.676;2023-06-22T13:45:09;23.3;76.4
78704;SHT31;68034;51.966;5.676;2023-06-22T13:47:45;23.3;76.9
78704;SHT31;68034;51.966;5.676;2023-06-22T13:50:14;23.4;76.8
78704;SHT31;68034;51.966;5.676;2023-06-22T13:52:55;23.5;76.0
78704;SHT31;68034;51.966;5.676;2023-06-22T13:55:37;23.6;76.4
78704;SHT31;68034;51.966;5.676;2023-06-22T13:58:06;23.7;75.6
78704;SHT31;68034;51.966;5.676;2023-06-22T14:00:39;23.8;75.4
78704;SHT31;68034;51.966;5.676;2023-06-22T14:03:09;23.9;75.2
78704;SHT31;68034;51.966;5.676;2023-06-22T14:05:38;23.9;75.0
78704;SHT31;68034;51.966;5.676;2023-06-22T14:08:07;23.9;74.8
78704;SHT31;68034;51.966;5.676;2023-06-22T14:10:35;23.9;75.3
78704;SHT31;68034;51.966;5.676;2023-06-22T14:13:04;23.9;75.3
78704;SHT31;68034;51.966;5.676;2023-06-22T14:15:34;23.8;75.6
78704;SHT31;68034;51.966;5.676;2023-06-22T14:18:02;23.8;75.3
78704;SHT31;68034;51.966;5.676;2023-06-22T14:20:31;23.7;75.6
78704;SHT31;68034;51.966;5.676;2023-06-22T14:23:00;23.7;74.9
78704;SHT31;68034;51.966;5.676;2023-06-22T14:25:30;23.6;75.7
78704;SHT31;68034;51.966;5.676;2023-06-22T14:27:59;23.6;74.2
78704;SHT31;68034;51.966;5.676;2023-06-22T14:30:27;23.6;74.3
78704;SHT31;68034;51.966;5.676;2023-06-22T14:32:56;23.5;74.9
78704;SHT31;68034;51.966;5.676;2023-06-22T14:35:25;23.4;75.6
78704;SHT31;68034;51.966;5.676;2023-06-22T14:37:53;23.3;74.8
78704;SHT31;68034;51.966;5.676;2023-06-22T14:40:22;23.3;75.6
78704;SHT31;68034;51.966;5.676;2023-06-22T14:42:51;23.3;75.2
78704;SHT31;68034;51.966;5.676;2023-06-22T14:45:19;23.3;74.6
78704;SHT31;68034;51.966;5.676;2023-06-22T14:47:48;23.3;75.1
78704;SHT31;68034;51.966;5.676;2023-06-22T14:50:17;23.2;75.0
78704;SHT31;68034;51.966;5.676;2023-06-22T14:52:46;23.2;75.1
78704;SHT31;68034;51.966;5.676;2023-06-22T14:55:15;23.1;75.1
78704;SHT31;68034;51.966;5.676;2023-06-22T14:57:43;23.1;75.2
78704;SHT31;68034;51.966;5.676;2023-06-22T15:00:13;23.0;74.2
78704;SHT31;68034;51.966;5.676;2023-06-22T15:02:42;22.9;75.1
78704;SHT31;68034;51.966;5.676;2023-06-22T15:05:11;22.9;75.1
78704;SHT31;68034;51.966;5.676;2023-06-22T15:07:40;22.8;75.6
78704;SHT31;68034;51.966;5.676;2023-06-22T15:10:09;22.8;76.1
78704;SHT31;68034;51.966;5.676;2023-06-22T15:12:38;22.7;76.3
78704;SHT31;68034;51.966;5.676;2023-06-22T15:15:07;22.7;76.4
78704;SHT31;68034;51.966;5.676;2023-06-22T15:17:36;22.6;76.9
78704;SHT31;68034;51.966;5.676;2023-06-22T15:20:05;22.5;76.6
78704;SHT31;68034;51.966;5.676;2023-06-22T15:22:34;22.5;77.1
78704;SHT31;68034;51.966;5.676;2023-06-22T15:25:04;22.4;77.2
78704;SHT31;68034;51.966;5.676;2023-06-22T15:27:33;22.4;77.9
78704;SHT31;68034;51.966;5.676;2023-06-22T15:30:02;22.4;77.9
78704;SHT31;68034;51.966;5.676;2023-06-22T15:32:31;22.3;78.4
78704;SHT31;68034;51.966;5.676;2023-06-22T15:35:00;22.3;78.1
78704;SHT31;68034;51.966;5.676;2023-06-22T15:37:29;22.2;78.7
78704;SHT31;68034;51.966;5.676;2023-06-22T15:39:57;22.2;78.5
78704;SHT31;68034;51.966;5.676;2023-06-22T15:42:26;22.2;78.9
78704;SHT31;68034;51.966;5.676;2023-06-22T15:44:55;22.1;79.0
78704;SHT31;68034;51.966;5.676;2023-06-22T15:47:24;22.1;79.5
78704;SHT31;68034;51.966;5.676;2023-06-22T15:49:52;22.1;79.4
78704;SHT31;68034;51.966;5.676;2023-06-22T15:52:21;22.1;79.8
78704;SHT31;68034;51.966;5.676;2023-06-22T15:54:50;22.0;79.4
78704;SHT31;68034;51.966;5.676;2023-06-22T15:57:21;22.0;79.8
78704;SHT31;68034;51.966;5.676;2023-06-22T15:59:50;22.0;79.9
78704;SHT31;68034;51.966;5.676;2023-06-22T16:02:18;22.0;80.1
78704;SHT31;68034;51.966;5.676;2023-06-22T16:04:47;22.0;80.3
78704;SHT31;68034;51.966;5.676;2023-06-22T16:07:17;22.0;80.9
78704;SHT31;68034;51.966;5.676;2023-06-22T16:09:45;21.9;81.2
78704;SHT31;68034;51.966;5.676;2023-06-22T16:12:14;21.9;81.2
78704;SHT31;68034;51.966;5.676;2023-06-22T16:14:43;21.9;81.4
78704;SHT31;68034;51.966;5.676;2023-06-22T16:17:12;21.9;81.3